Nashville, Tennessee
Traffic Map
Current Weather Conditions
Nashville, Tennessee
Few Clouds
Few Clouds
21°
Feels Like: 21°
Wind Chill: 21° Ceiling: Unl
Heat Index: 21° Visibility: 10mi
Dew Point: -4° Wind: 10mph
Humidity: 19% Direction: 300° (WNW)
Pressure: 30.14in Gusts: 0mph
Raw Report DataKBNA 301953Z 30009KT 10SM FEW250 21/M04 A3014 RMK AO2 SLP203 T02061039
Traffic Incident Summary
Active as of:
Severity:
Category:
InformationThere was an issue retrieving the traffic information for this location. Please try a different location or try again shortly.
Advertisements
Track Severe Weather on mobile